createdAt,value
2022-09-12T00:00:39.496Z,0.60
2022-09-12T00:05:32.822Z,0.63
2022-09-12T00:10:24.569Z,0.68
2022-09-12T00:15:16.308Z,2.13
2022-09-12T00:20:09.463Z,1.20
2022-09-12T00:25:01.164Z,1.10
2022-09-12T00:29:52.823Z,1.17
2022-09-12T00:34:44.602Z,0.80
2022-09-12T00:39:36.157Z,1.08
2022-09-12T00:44:27.983Z,1.25
2022-09-12T00:49:42.950Z,1.20
2022-09-12T00:54:42.843Z,1.00
2022-09-12T00:59:57.531Z,1.50
2022-09-12T01:04:51.381Z,1.45
2022-09-12T01:09:45.382Z,1.80
2022-09-12T01:14:38.425Z,1.52
2022-09-12T01:19:54.729Z,1.80
2022-09-12T01:24:53.009Z,2.28
2022-09-12T01:30:13.614Z,2.50
2022-09-12T01:35:10.841Z,2.42
2022-09-12T01:40:31.708Z,2.63
2022-09-12T01:45:33.905Z,2.97
2022-09-12T01:50:31.153Z,3.60
2022-09-12T01:55:28.764Z,3.28
2022-09-12T02:00:20.597Z,3.33
2022-09-12T02:05:20.459Z,3.28
2022-09-12T02:10:18.216Z,3.42
2022-09-12T02:20:25.998Z,3.10
2022-09-12T02:25:29.346Z,3.40
2022-09-12T02:30:22.220Z,3.95
2022-09-12T02:35:47.122Z,4.45
2022-09-12T02:40:39.086Z,4.47
2022-09-12T02:45:34.373Z,4.90
2022-09-12T02:50:26.925Z,4.57
2022-09-12T02:55:18.958Z,4.22
2022-09-12T03:00:11.323Z,4.80
2022-09-12T03:05:09.116Z,4.55
2022-09-12T03:15:38.407Z,4.68
2022-09-12T03:20:39.353Z,4.68
2022-09-12T03:25:34.371Z,4.57
2022-09-12T03:30:26.987Z,4.82
2022-09-12T03:35:23.128Z,4.93
2022-09-12T03:40:15.687Z,4.93
2022-09-12T03:45:08.806Z,4.80
2022-09-12T03:50:00.598Z,5.57
2022-09-12T03:54:52.263Z,5.32
2022-09-12T03:59:43.972Z,5.20
2022-09-12T04:04:35.646Z,5.35
2022-09-12T04:09:27.342Z,4.72
2022-09-12T04:14:18.985Z,5.20
2022-09-12T04:19:11.884Z,5.25
2022-09-12T04:24:03.797Z,4.50
2022-09-12T04:28:57.765Z,4.90
2022-09-12T04:33:57.326Z,4.68
2022-09-12T04:38:49.011Z,4.88
2022-09-12T04:43:41.132Z,4.80
2022-09-12T04:48:32.816Z,4.88
2022-09-12T04:53:24.506Z,3.95
2022-09-12T04:58:16.333Z,5.97
2022-09-12T05:03:08.501Z,5.85
2022-09-12T05:08:00.276Z,3.78
2022-09-12T05:12:52.857Z,4.53
2022-09-12T05:17:44.697Z,4.43
2022-09-12T05:22:36.329Z,3.92
2022-09-12T05:27:27.968Z,3.75
2022-09-12T05:32:19.734Z,4.07
2022-09-12T05:37:11.431Z,3.95
2022-09-12T05:42:03.415Z,5.13
2022-09-12T05:46:55.052Z,5.10
2022-09-12T05:51:46.851Z,4.40
2022-09-12T05:56:41.343Z,3.45
2022-09-12T06:01:35.526Z,3.90
2022-09-12T06:06:29.145Z,4.55
2022-09-12T06:11:24.949Z,3.97
2022-09-12T06:16:22.550Z,4.40
2022-09-12T06:21:14.705Z,4.55
2022-09-12T06:26:08.618Z,4.00
2022-09-12T06:31:06.151Z,4.03
2022-09-12T06:36:06.900Z,3.97
2022-09-12T06:41:00.710Z,3.30
2022-09-12T06:45:52.315Z,3.35
2022-09-12T06:50:44.223Z,3.03
2022-09-12T06:55:35.935Z,2.63
2022-09-12T07:00:27.807Z,3.88
2022-09-12T07:05:19.519Z,3.53
2022-09-12T07:10:12.499Z,3.03
2022-09-12T07:15:04.317Z,3.40
2022-09-12T07:19:56.280Z,3.05
2022-09-12T07:24:47.969Z,2.80
2022-09-12T07:29:39.703Z,2.92
2022-09-12T07:34:31.905Z,3.13
2022-09-12T07:39:23.582Z,2.85
2022-09-12T07:44:15.214Z,3.00
2022-09-12T07:49:08.578Z,2.85
2022-09-12T07:54:00.377Z,2.70
2022-09-12T07:58:52.120Z,2.78
2022-09-12T08:03:47.363Z,1.95
2022-09-12T08:08:39.173Z,2.72
2022-09-12T08:13:30.873Z,1.90
2022-09-12T08:18:22.621Z,2.42
2022-09-12T08:23:14.260Z,1.73
2022-09-12T08:28:06.386Z,1.75
2022-09-12T08:32:58.413Z,1.50
2022-09-12T08:37:50.085Z,2.35
2022-09-12T08:43:00.499Z,1.73
2022-09-12T08:47:52.788Z,1.60
2022-09-12T08:52:59.705Z,1.77
2022-09-12T08:57:52.125Z,1.53
2022-09-12T09:03:01.802Z,1.17
2022-09-12T09:08:22.818Z,1.73
2022-09-12T09:13:43.365Z,1.50
2022-09-12T09:18:36.034Z,0.93
2022-09-12T09:23:34.117Z,1.13
2022-09-12T09:28:29.248Z,0.82
2022-09-12T09:33:28.150Z,0.90
2022-09-12T09:38:41.088Z,1.00
2022-09-12T09:43:32.845Z,1.20
2022-09-12T09:48:47.368Z,0.70
2022-09-12T09:53:56.595Z,0.70
2022-09-12T09:58:48.397Z,0.50
2022-09-12T10:03:40.624Z,0.70
2022-09-12T10:08:35.361Z,0.50
2022-09-12T10:13:42.678Z,0.43
2022-09-12T10:18:37.726Z,0.60
2022-09-12T10:23:37.790Z,0.60
2022-09-12T10:28:37.616Z,0.77
2022-09-12T10:33:30.021Z,0.70
2022-09-12T10:38:32.265Z,0.65
2022-09-12T10:43:29.656Z,0.75
2022-09-12T10:48:31.972Z,0.60
2022-09-12T10:53:25.161Z,0.70
2022-09-12T10:58:32.234Z,0.40
2022-09-12T11:03:49.163Z,0.50
2022-09-12T11:08:53.492Z,0.40
2022-09-12T11:14:06.823Z,0.32
2022-09-12T11:19:21.677Z,0.57
2022-09-12T11:24:25.714Z,0.57
2022-09-12T11:29:29.273Z,0.40
2022-09-12T11:34:40.015Z,0.30
2022-09-12T11:39:40.063Z,0.30
2022-09-12T11:44:40.665Z,0.38
2022-09-12T11:49:38.584Z,0.30
2022-09-12T11:54:39.260Z,0.40
2022-09-12T11:59:42.759Z,0.30
2022-09-12T12:04:44.632Z,0.40
2022-09-12T12:09:45.529Z,0.35
2022-09-12T12:14:47.286Z,0.32
2022-09-12T12:19:39.028Z,0.35
2022-09-12T12:24:30.797Z,0.60
2022-09-12T12:29:22.356Z,0.70
2022-09-12T12:34:35.944Z,0.80
2022-09-12T12:39:33.653Z,1.08
2022-09-12T12:44:44.092Z,1.13
2022-09-12T12:49:36.096Z,0.95
2022-09-12T12:54:48.299Z,0.90
2022-09-12T12:59:52.004Z,1.02
2022-09-12T13:04:45.260Z,1.05
2022-09-12T13:09:49.959Z,1.20
2022-09-12T13:14:51.903Z,1.40
2022-09-12T13:19:44.221Z,0.98
2022-09-12T13:24:52.375Z,1.38
2022-09-12T13:29:44.112Z,1.23
2022-09-12T13:34:46.360Z,1.88
2022-09-12T13:39:44.217Z,1.35
2022-09-12T13:44:44.669Z,1.30
2022-09-12T13:49:39.465Z,2.00
2022-09-12T13:54:32.638Z,1.67
2022-09-12T13:59:24.963Z,1.80
2022-09-12T14:04:40.751Z,1.58
2022-09-12T14:09:38.570Z,1.52
2022-09-12T14:14:36.695Z,2.10
2022-09-12T14:19:29.332Z,1.63
2022-09-12T14:24:23.467Z,2.08
2022-09-12T14:29:16.885Z,1.58
2022-09-12T14:34:17.225Z,2.30
2022-09-12T14:39:30.787Z,1.95
2022-09-12T14:44:27.782Z,1.73
2022-09-12T14:49:35.134Z,2.47
2022-09-12T14:54:30.278Z,2.55
2022-09-12T14:59:40.479Z,1.42
2022-09-12T15:04:39.551Z,2.15
2022-09-12T15:09:31.250Z,2.50
2022-09-12T15:14:22.869Z,2.20
2022-09-12T15:19:14.544Z,2.42
2022-09-12T15:24:06.478Z,2.85
2022-09-12T15:28:58.160Z,2.50
2022-09-12T15:33:49.830Z,2.72
2022-09-12T15:38:41.598Z,3.33
2022-09-12T15:43:33.222Z,2.97
2022-09-12T15:48:24.862Z,2.95
2022-09-12T15:53:17.317Z,2.33
2022-09-12T15:58:09.329Z,2.55
2022-09-12T16:03:01.181Z,2.15
2022-09-12T16:07:54.226Z,1.80
2022-09-12T16:12:46.310Z,1.50
2022-09-12T16:17:37.923Z,1.05
2022-09-12T16:22:29.809Z,1.00
2022-09-12T16:27:21.463Z,1.10
2022-09-12T16:32:13.244Z,0.70
2022-09-12T16:37:05.647Z,0.85
2022-09-12T16:41:57.458Z,0.73
2022-09-12T16:46:50.902Z,0.70
2022-09-12T16:51:45.052Z,0.70
2022-09-12T16:56:36.807Z,0.70
2022-09-12T17:01:28.597Z,0.70
2022-09-12T17:06:20.524Z,0.85
2022-09-12T17:11:15.165Z,0.98
2022-09-12T17:16:08.669Z,0.70
2022-09-12T17:21:00.394Z,0.70
2022-09-12T17:25:52.499Z,0.60
2022-09-12T17:30:44.660Z,0.40
2022-09-12T17:35:37.845Z,0.50
2022-09-12T17:40:55.793Z,0.30
2022-09-12T17:45:41.872Z,0.40
2022-09-12T17:50:40.623Z,1.20
2022-09-12T17:55:36.095Z,3.72
2022-09-12T18:00:48.262Z,6.85
2022-09-12T18:05:52.867Z,10.63
2022-09-12T18:10:45.050Z,12.27
2022-09-12T18:15:37.081Z,9.52
2022-09-12T18:20:29.054Z,8.18
2022-09-12T18:25:20.801Z,7.78
2022-09-12T18:30:22.130Z,5.43
2022-09-12T18:35:14.382Z,3.85
2022-09-12T18:40:06.302Z,2.75
2022-09-12T18:44:58.047Z,1.98
2022-09-12T18:49:49.690Z,2.75
2022-09-12T18:54:42.137Z,3.13
2022-09-12T18:59:33.863Z,5.65
2022-09-12T19:04:25.692Z,6.75
2022-09-12T19:09:20.721Z,4.25
2022-09-12T19:14:12.516Z,3.08
2022-09-12T19:19:04.355Z,2.78
2022-09-12T19:23:58.921Z,3.10
2022-09-12T19:28:50.980Z,2.60
2022-09-12T19:33:42.751Z,3.83
2022-09-12T19:38:35.070Z,2.58
2022-09-12T19:43:27.543Z,1.42
2022-09-12T19:48:20.361Z,1.08
2022-09-12T19:53:12.258Z,1.00
2022-09-12T19:58:07.757Z,0.70
2022-09-12T20:03:00.021Z,0.52
2022-09-12T20:07:53.293Z,0.80
2022-09-12T20:12:45.128Z,0.70
2022-09-12T20:17:37.016Z,0.80
2022-09-12T20:22:28.832Z,0.90
2022-09-12T20:27:20.821Z,1.17
2022-09-12T20:32:12.433Z,0.77
2022-09-12T20:37:04.289Z,0.80
2022-09-12T20:41:56.078Z,0.80
2022-09-12T20:46:47.808Z,0.68
2022-09-12T20:51:39.537Z,0.63
2022-09-12T20:56:33.621Z,0.80
2022-09-12T21:01:28.540Z,0.80
2022-09-12T21:06:21.475Z,0.80
2022-09-12T21:11:14.802Z,0.70
2022-09-12T21:16:11.299Z,0.73
2022-09-12T21:21:05.454Z,0.75
2022-09-12T21:25:59.728Z,0.70
2022-09-12T21:30:52.680Z,0.70
2022-09-12T21:35:45.403Z,0.85
2022-09-12T21:40:38.213Z,0.95
2022-09-12T21:45:30.526Z,0.50
2022-09-12T21:50:22.188Z,0.80
2022-09-12T21:55:13.969Z,0.80
2022-09-12T22:00:08.086Z,0.60
2022-09-12T22:04:59.828Z,0.60
2022-09-12T22:09:52.237Z,0.60
2022-09-12T22:14:44.857Z,0.80
2022-09-12T22:19:37.241Z,0.60
2022-09-12T22:24:29.139Z,0.50
2022-09-12T22:29:21.957Z,0.90
2022-09-12T22:34:14.593Z,0.57
2022-09-12T22:39:07.634Z,0.68
2022-09-12T22:43:59.863Z,0.60
2022-09-12T22:48:52.359Z,0.60
2022-09-12T22:53:44.285Z,0.50
2022-09-12T22:58:41.400Z,0.43
2022-09-12T23:03:33.260Z,1.33
2022-09-12T23:08:29.535Z,0.40
2022-09-12T23:13:21.341Z,0.40
2022-09-12T23:18:12.939Z,0.30
2022-09-12T23:23:04.589Z,0.30
2022-09-12T23:27:56.301Z,0.40
2022-09-12T23:32:50.689Z,0.32
2022-09-12T23:37:42.328Z,0.32
2022-09-12T23:42:34.000Z,0.30
2022-09-12T23:47:25.649Z,0.40
2022-09-12T23:52:17.289Z,0.38
2022-09-12T23:57:08.931Z,0.38
